Time;durP1;ratioP1;P1;durP2;ratioP2;P2;SDS_P1;SDS_P2;PMS_P1;PMS_P2;Temp;Humidity;BMP_temperature;BMP_pressure;BME280_temperature;BME280_humidity;BME280_pressure;Samples;Min_cycle;Max_cycle;Signal;HPM_P1;HPM_P2
2022/10/24 00:09:53;;;;;;;2.63;1.00;;;;;;;;;;20888228;28;20755;-78
2022/10/24 00:19:57;;;;;;;2.57;0.60;;;;;;;;;;20884450;28;20222;-78
2022/10/24 00:29:58;;;;;;;2.40;1.10;;;;;;;;;;20867774;28;20260;-78
2022/10/24 00:40:00;;;;;;;1.20;0.53;;;;;;;;;;20865144;28;20230;-78
2022/10/24 00:50:14;;;;;;;2.47;0.70;;;15.60;99.90;;;;;;20905605;28;20202;-78
2022/10/24 01:00:24;;;;;;;3.10;1.00;;;;;;;;;;20884208;28;20214;-79
2022/10/24 01:10:39;;;;;;;3.03;0.83;;;;;;;;;;20902353;28;20217;-78
2022/10/24 01:21:16;;;;;;;2.00;1.07;;;;;;;;;;20903913;28;20222;-80
2022/10/24 01:31:29;;;;;;;0.90;0.70;;;15.40;99.90;;;;;;20839002;28;20552;-80
2022/10/24 01:41:31;;;;;;;2.60;1.17;;;;;;;;;;20896586;28;20688;-79
2022/10/24 01:51:33;;;;;;;2.43;1.07;;;;;;;;;;20899310;28;20218;-79
2022/10/24 02:01:37;;;;;;;1.30;0.60;;;15.40;99.90;;;;;;20912027;28;20221;-80
2022/10/24 02:11:40;;;;;;;4.33;0.90;;;15.40;99.90;;;;;;20879700;28;20214;-80
2022/10/24 02:21:42;;;;;;;2.53;0.67;;;;;;;;;;20878706;28;20585;-79
2022/10/24 02:31:47;;;;;;;2.80;1.10;;;;;;;;;;20875833;28;20217;-80
2022/10/24 02:41:50;;;;;;;3.13;0.80;;;;;;;;;;20889568;28;20221;-80
2022/10/24 02:51:52;;;;;;;2.70;1.10;;;;;;;;;;20892416;28;20583;-80
2022/10/24 03:01:54;;;;;;;1.97;1.07;;;;;;;;;;20888470;28;20217;-80
2022/10/24 03:11:56;;;;;;;3.03;1.00;;;;;;;;;;20866728;28;20206;-79
2022/10/24 03:21:57;;;;;;;2.53;0.90;;;;;;;;;;20855264;28;20210;-79
2022/10/24 03:32:00;;;;;;;2.00;0.80;;;;;;;;;;20902717;28;20580;-79
2022/10/24 03:42:01;;;;;;;1.30;0.83;;;;;;;;;;20844341;28;20894;-79
2022/10/24 03:52:03;;;;;;;3.03;0.53;;;;;;;;;;20860956;28;20542;-78
2022/10/24 04:02:05;;;;;;;1.97;0.70;;;;;;;;;;20884616;28;20221;-80
2022/10/24 04:12:07;;;;;;;1.27;0.67;;;;;;;;;;20903386;28;20279;-80
2022/10/24 04:22:09;;;;;;;1.77;0.70;;;;;;;;;;20894177;28;20206;-80
2022/10/24 04:32:11;;;;;;;1.93;0.70;;;;;;;;;;20877440;28;20205;-79
2022/10/24 04:42:13;;;;;;;2.87;0.80;;;;;;;;;;20879399;28;20253;-79
2022/10/24 04:52:15;;;;;;;4.33;0.97;;;;;;;;;;20913852;28;20232;-80
2022/10/24 05:02:16;;;;;;;2.27;1.13;;;;;;;;;;20879067;28;20217;-80
2022/10/24 05:12:18;;;;;;;5.07;1.50;;;;;;;;;;20903783;28;20244;-78
2022/10/24 05:22:20;;;;;;;5.00;0.97;;;;;;;;;;20860034;28;20271;-79
2022/10/24 05:32:22;;;;;;;1.77;0.73;;;15.10;99.90;;;;;;20863360;28;20775;-78
2022/10/24 05:42:24;;;;;;;1.10;0.67;;;;;;;;;;20876197;28;20222;-78
2022/10/24 05:52:26;;;;;;;4.70;1.00;;;;;;;;;;20906925;28;20221;-77
2022/10/24 06:02:28;;;;;;;3.37;1.10;;;;;;;;;;20886789;28;20221;-77
2022/10/24 06:12:29;;;;;;;2.53;1.10;;;;;;;;;;20873167;28;20217;-78
2022/10/24 06:22:31;;;;;;;6.83;1.17;;;;;;;;;;20896630;28;20217;-78
2022/10/24 06:32:33;;;;;;;2.43;0.90;;;;;;;;;;20886028;28;20218;-77
2022/10/24 06:42:35;;;;;;;5.13;1.37;;;;;;;;;;20890258;28;20279;-77
2022/10/24 06:52:36;;;;;;;3.17;1.27;;;;;;;;;;20903440;28;20222;-77
2022/10/24 07:02:38;;;;;;;3.50;1.00;;;;;;;;;;20887370;28;20218;-78
2022/10/24 07:12:41;;;;;;;1.50;0.60;;;;;;;;;;20903796;28;20241;-77
2022/10/24 07:22:44;;;;;;;0.80;0.50;;;;;;;;;;20867828;28;20268;-77
2022/10/24 07:32:45;;;;;;;2.53;0.90;;;;;;;;;;20851377;28;20589;-78
2022/10/24 07:42:47;;;;;;;3.20;0.80;;;;;;;;;;20860030;28;20271;-79
2022/10/24 07:52:49;;;;;;;1.93;1.07;;;;;;;;;;20892075;28;20640;-77
2022/10/24 08:02:51;;;;;;;3.17;0.80;;;;;;;;;;20858148;28;20308;-77
2022/10/24 08:12:53;;;;;;;4.20;1.10;;;;;;;;;;20883602;28;20221;-78
2022/10/24 08:22:54;;;;;;;3.23;0.73;;;;;;;;;;20880965;28;20743;-79
2022/10/24 08:32:56;;;;;;;1.10;0.70;;;;;;;;;;20900070;28;20681;-78
2022/10/24 08:42:58;;;;;;;2.93;0.50;;;;;;;;;;20886203;28;20623;-78
2022/10/24 08:53:00;;;;;;;4.93;1.13;;;;;;;;;;20868386;28;20307;-79
2022/10/24 09:03:17;;;;;;;1.97;0.70;;;;;;;;;;20941871;28;20643;-78
2022/10/24 09:13:22;;;;;;;5.97;0.90;;;;;;;;;;20908671;28;20240;-78
2022/10/24 09:23:25;;;;;;;3.53;1.20;;;16.80;99.90;;;;;;20946954;28;20243;-78
2022/10/24 09:33:27;;;;;;;2.30;1.07;;;;;;;;;;20968764;28;20541;-77
2022/10/24 09:43:29;;;;;;;3.27;1.07;;;;;;;;;;20986919;28;20267;-78
2022/10/24 09:53:31;;;;;;;3.53;1.30;;;;;;;;;;20980650;28;20595;-77
2022/10/24 10:03:34;;;;;;;2.87;0.70;;;;;;;;;;20961732;28;20229;-77
2022/10/24 10:13:49;;;;;;;3.00;0.87;;;16.80;99.90;;;;;;20883001;28;20233;-77
2022/10/24 10:23:53;;;;;;;1.13;0.70;;;;;;;;;;20895079;28;20545;-77
2022/10/24 10:34:04;;;;;;;3.73;0.80;;;17.50;99.90;;;;;;20873148;28;20218;-80
2022/10/24 10:44:15;;;;;;;1.57;0.50;;;;;;;;;;20897594;28;20615;-77
2022/10/24 10:54:23;;;;;;;4.23;0.97;;;;;;;;;;20898553;28;20238;-78
2022/10/24 11:04:27;;;;;;;2.17;0.50;;;;;;;;;;20883424;28;20291;-78
2022/10/24 11:14:37;;;;;;;2.37;1.00;;;18.70;99.90;;;;;;20883295;28;20223;-78
2022/10/24 11:24:44;;;;;;;1.67;0.80;;;;;;;;;;20882028;28;20225;-77
2022/10/24 11:34:54;;;;;;;2.63;1.10;;;19.10;99.90;;;;;;20884809;28;20214;-77
2022/10/24 11:45:05;;;;;;;2.40;0.80;;;;;;;;;;20883789;28;20220;-78
2022/10/24 11:55:21;;;;;;;1.03;0.50;;;;;;;;;;20882522;28;20221;-78
2022/10/24 12:05:22;;;;;;;2.33;0.83;;;;;;;;;;20908366;28;20691;-78
2022/10/24 12:15:36;;;;;;;3.97;1.13;;;;;;;;;;20888911;28;20651;-77
2022/10/24 12:25:40;;;;;;;4.03;1.40;;;;;;;;;;20889502;28;20271;-77
2022/10/24 12:35:45;;;;;;;2.23;0.80;;;;;;;;;;20911496;28;20221;-79
2022/10/24 12:45:47;;;;;;;3.23;1.10;;;;;;;;;;20928970;28;20635;-77
2022/10/24 12:55:49;;;;;;;1.60;0.70;;;;;;;;;;20914832;28;20227;-77
2022/10/24 13:06:06;;;;;;;2.97;1.23;;;;;;;;;;20900900;28;20310;-79
2022/10/24 13:16:26;;;;;;;3.60;0.80;;;;;;;;;;20880896;22;20234;-65
2022/10/24 13:26:43;;;;;;;3.70;0.80;;;;;;;;;;20760321;28;20268;-67
2022/10/24 13:36:45;;;;;;;2.20;0.73;;;;;;;;;;20772267;28;20286;-67
2022/10/24 13:46:47;;;;;;;1.53;0.80;;;;;;;;;;20738091;28;20642;-67
2022/10/24 13:56:49;;;;;;;1.70;0.80;;;;;;;;;;20733242;28;20287;-67
2022/10/24 14:06:52;;;;;;;3.27;1.00;;;;;;;;;;20733992;28;20298;-66
2022/10/24 14:17:14;;;;;;;2.43;0.90;;;;;;;;;;20693746;28;20614;-67
2022/10/24 14:27:16;;;;;;;1.27;0.50;;;;;;;;;;20746985;28;20209;-67
2022/10/24 14:37:30;;;;;;;2.10;0.90;;;19.00;99.90;;;;;;20770227;28;20251;-67
2022/10/24 14:47:37;;;;;;;1.73;0.70;;;;;;;;;;20787200;28;20212;-67
2022/10/24 14:57:46;;;;;;;1.50;0.60;;;;;;;;;;20787153;28;20237;-67
2022/10/24 15:07:53;;;;;;;1.37;0.53;;;;;;;;;;20771274;28;20261;-67
2022/10/24 15:18:06;;;;;;;0.67;0.50;;;19.00;99.90;;;;;;20787180;28;20219;-69
2022/10/24 15:28:28;;;;;;;2.97;0.70;;;;;;;;;;20724595;28;20221;-66
2022/10/24 15:38:30;;;;;;;1.07;0.50;;;;;;;;;;20757060;28;20228;-66
2022/10/24 15:48:32;;;;;;;4.43;0.67;;;;;;;;;;20787114;28;20204;-66
2022/10/24 15:58:34;;;;;;;2.83;0.60;;;;;;;;;;20787172;28;20568;-66
2022/10/24 16:08:36;;;;;;;3.00;1.07;;;;;;;;;;20779546;28;20244;-68
2022/10/24 16:18:38;;;;;;;1.23;0.40;;;;;;;;;;20776909;28;20225;-66
2022/10/24 16:28:40;;;;;;;1.23;0.70;;;;;;;;;;20747118;28;20274;-66
2022/10/24 16:38:48;;;;;;;1.57;0.70;;;17.90;99.90;;;;;;20719875;28;20699;-66
2022/10/24 16:48:49;;;;;;;1.90;0.70;;;17.80;99.90;;;;;;20709498;28;20205;-66
2022/10/24 16:58:51;;;;;;;1.67;0.70;;;;;;;;;;20722627;28;20219;-66
2022/10/24 17:08:54;;;;;;;4.07;0.87;;;;;;;;;;20797422;28;20697;-66
2022/10/24 17:18:55;;;;;;;3.07;0.83;;;;;;;;;;20758680;28;20221;-66
2022/10/24 17:29:01;;;;;;;2.77;1.07;;;;;;;;;;20743468;28;20321;-66
2022/10/24 17:39:12;;;;;;;1.00;0.63;;;17.80;99.90;;;;;;20716135;28;20279;-66
2022/10/24 17:49:16;;;;;;;2.40;0.60;;;;;;;;;;20744664;28;20277;-65
2022/10/24 17:59:20;;;;;;;0.80;0.50;;;;;;;;;;20768763;28;20268;-65
2022/10/24 18:09:23;;;;;;;2.23;0.47;;;;;;;;;;20751861;28;20208;-65
2022/10/24 18:19:24;;;;;;;0.93;0.40;;;;;;;;;;20731265;28;20251;-65
2022/10/24 18:29:26;;;;;;;3.23;0.90;;;;;;;;;;20735673;28;20215;-65
2022/10/24 18:39:29;;;;;;;2.30;0.50;;;;;;;;;;20702049;28;20478;-64
2022/10/24 18:49:32;;;;;;;2.97;0.77;;;17.50;99.90;;;;;;20702766;28;20502;-65
2022/10/24 18:59:35;;;;;;;1.53;0.40;;;;;;;;;;20716982;28;20247;-65
2022/10/24 19:09:38;;;;;;;0.50;0.37;;;;;;;;;;20733056;28;20262;-65
2022/10/24 19:19:41;;;;;;;0.50;0.30;;;;;;;;;;20810586;23;20223;-77
2022/10/24 19:29:46;;;;;;;0.43;0.20;;;;;;;;;;20792726;28;20681;-74
2022/10/24 19:39:48;;;;;;;0.33;0.33;;;;;;;;;;20806630;28;20235;-74
2022/10/24 19:49:50;;;;;;;0.30;0.20;;;;;;;;;;20815477;28;20645;-73
2022/10/24 19:59:52;;;;;;;0.87;0.47;;;;;;;;;;20811471;28;20237;-73
2022/10/24 20:09:55;;;;;;;1.00;0.43;;;;;;;;;;20792400;28;20743;-72
2022/10/24 20:19:57;;;;;;;0.57;0.23;;;;;;;;;;20811181;28;20214;-73
2022/10/24 20:29:59;;;;;;;0.40;0.30;;;;;;;;;;20807721;28;20230;-74
2022/10/24 20:40:01;;;;;;;0.23;0.20;;;;;;;;;;20814309;28;20503;-74
2022/10/24 20:50:03;;;;;;;0.40;0.30;;;;;;;;;;20800182;28;20226;-74
2022/10/24 21:00:05;;;;;;;0.50;0.23;;;;;;;;;;20813529;28;20731;-73
2022/10/24 21:10:08;;;;;;;0.97;0.37;;;;;;;;;;20859527;28;20230;-74
2022/10/24 21:20:10;;;;;;;0.50;0.30;;;;;;;;;;20893112;28;20263;-76
2022/10/24 21:30:12;;;;;;;1.10;0.40;;;;;;;;;;20911209;28;20244;-76
2022/10/24 21:40:17;;;;;;;0.93;0.50;;;;;;;;;;20909467;28;20318;-73
2022/10/24 21:50:18;;;;;;;1.83;0.40;;;;;;;;;;20910650;28;20665;-73
2022/10/24 22:00:20;;;;;;;0.90;0.50;;;;;;;;;;20890217;28;20285;-73
2022/10/24 22:10:21;;;;;;;1.13;0.37;;;;;;;;;;20908832;28;20664;-74
2022/10/24 22:20:23;;;;;;;0.30;0.30;;;;;;;;;;20864713;28;20272;-73
2022/10/24 22:30:25;;;;;;;0.30;0.30;;;;;;;;;;20822855;28;20348;-74
2022/10/24 22:40:29;;;;;;;1.43;0.30;;;15.30;99.90;;;;;;20803486;28;20280;-74
2022/10/24 22:50:31;;;;;;;0.60;0.30;;;;;;;;;;20788129;28;20214;-74
2022/10/24 23:00:33;;;;;;;0.57;0.40;;;;;;;;;;20821676;28;20222;-72
2022/10/24 23:10:38;;;;;;;0.23;0.20;;;;;;;;;;20820985;28;20210;-74
2022/10/24 23:20:44;;;;;;;0.30;0.30;;;;;;;;;;20818356;28;20274;-74
2022/10/24 23:30:45;;;;;;;1.60;0.40;;;;;;;;;;20819690;28;20225;-75
2022/10/24 23:40:47;;;;;;;0.37;0.20;;;15.60;99.90;;;;;;20801588;28;20291;-74
2022/10/24 23:50:49;;;;;;;2.47;0.37;;;;;;;;;;20818715;28;20681;-74
